Ευχαριστούμε που συμβάλλετε στη διατήρηση της σελίδας μας.

Thank you for your donations, it really helps to maintain the page.


Στατιστικά Καιρού & Άλλα..









Δείκτης Πυρκαγιάς (FWI)

Καστελόκαμπος Ρίον more information Kastelokampos Rion


Κάμερα Ρομανού more information Romanos Cam


Ραντάρ Κεραυνών more information blitzortung!


Ραντάρ Βροχής more information rain snow radar


Επισκεφθείτε άλλες ιστοσελίδες καιρού μας:

Meteopatras.Eu in
Euweather NetworkMeteopatras.Eu in Euweather Network

Weather CloudWeather Cloud

PWS WeatherPWS Weather

Awekas NetWeather data from station Patra-Ketx

WunderGroundWeather data from station Patra-Ketx



Εξαιρετικά χαμηλές θερμοκρασίες Από : 26-01-2021 22:00 Μέχρι : 28-01-2021 00:59 προειδοποίηση για : Εξαιρετικά χαμηλές θερμοκρασίες Επίπεδο : Κίτρινο info button

Ιδιοκτησία και Επίβλεψη : Μουλάς Αντρέας

 Πάτρα, Ελλάδα - Γ.Πλάτος : 38°14'21" Β - Γ.Μήκος : 21°45'5" Α - Υψόμετρο : 56μ

Κοντινές Αναφορές METAR

   
LGRX - Araxos
Ενημερώθηκε: 27-01-2021 19:50
Κυρίως Αίθριος  
Κυρίως Αίθριος  
   Άνεμος: ΔΒΔ 7.4 km/h
Άνεμος: ΔΒΔ 7.4 km/h
Θερμοκρασία: 8°C
Δείκτης Ψυχρότητας: 7°C
Σημείο Δρόσου: -6°C
Υγρασία: 37%
Βαρόμετρο: 1012 hPa
Σύννεφα: Κυρίως Αίθριος
Ορατότητα: More than 10 km
Λεπτομέρειες Σύννεφου: Κυρίως Αίθριος 2500 ft
LGRX 271750Z 30004KT 9999 FEW025 08/M06 Q1012
LGAD - Andravida
Ενημερώθηκε: 27-01-2021 20:20
Μερικώς Νεφελώδης  
Μερικώς Νεφελώδης  
   Άνεμος: ΒΔ 29.6 km/h
Άνεμος: ΒΔ 29.6 km/h
Θερμοκρασία: 9°C
Δείκτης Ψυχρότητας: 6°C
Σημείο Δρόσου: -3°C
Υγρασία: 43%
Βαρόμετρο: 1013 hPa
Σύννεφα: Μερικώς Νεφελώδης
Ορατότητα: More than 10 km
Λεπτομέρειες Σύννεφου: Μερικώς Νεφελώδης 2000 ft,
Μερικώς Νεφελώδης 8000 ft
LGAD 271820Z 31016KT 9999 SCT020 SCT080 09/M03 Q1013
LGZA - Zakinthos
Ενημερώθηκε: 27-01-2021 19:50
Κυρίως Συννεφιά  
Κυρίως Συννεφιά  
   Άνεμος: ΒΔ 20.4 km/h
Άνεμος: ΒΔ 20.4 km/h
Θερμοκρασία: 8°C
Δείκτης Ψυχρότητας: 5°C
Σημείο Δρόσου: 1°C
Υγρασία: 62%
Βαρόμετρο: 1013 hPa
Σύννεφα: Κυρίως Συννεφιά
Ορατότητα: More than 10 km
Λεπτομέρειες Σύννεφου: Κυρίως Συννεφιά 2000 ft
LGZA 271750Z 31011KT 9999 BKN020 08/01 Q1013
LGKF - Kefallinia
Ενημερώθηκε: 27-01-2021 16:50
ΜΗ τρέχουσες
Μερικώς Νεφελώδης  
Μερικώς Νεφελώδης  
   Άνεμος: ΒΔ 38.9 km/h
Άνεμος: ΒΔ 38.9 km/h
Θερμοκρασία: 10°C
Δείκτης Ψυχρότητας: 6°C
Σημείο Δρόσου: 1°C
Υγρασία: 54%
Βαρόμετρο: 1012 hPa
Σύννεφα: Μερικώς Νεφελώδης
Ορατότητα: More than 10 km
Λεπτομέρειες Σύννεφου: Κυρίως Αίθριος 1200 ft,
Κυρίως Αίθριος 1600 ft,
Μερικώς Νεφελώδης 2000 ft
LGKF 271450Z 32021KT 9999 FEW012 FEW016TCU SCT020 10/01 Q1012
LGPZ - Preveza
Ενημερώθηκε: 27-01-2021 19:50
Μερικώς Νεφελώδης  
Μερικώς Νεφελώδης  
   Άνεμος: Βοράς 9.3 km/h
Άνεμος: Βοράς 9.3 km/h
Θερμοκρασία: 5°C
Δείκτης Ψυχρότητας: 3°C
Σημείο Δρόσου: -4°C
Υγρασία: 53%
Βαρόμετρο: 1013 hPa
Σύννεφα: Μερικώς Νεφελώδης
Ορατότητα: More than 10 km
Λεπτομέρειες Σύννεφου: Μερικώς Νεφελώδης 2000 ft
LGPZ 271750Z 36005KT 9999 SCT020 05/M04 Q1013
LGKL - Kalamata
Ενημερώθηκε: 27-01-2021 20:20
Κυρίως Αίθριος  
Κυρίως Αίθριος  
   Άνεμος: Άπνοια
Άνεμος: Άπνοια
Θερμοκρασία: 5°C
Σημείο Δρόσου: -1°C
Υγρασία: 66%
Βαρόμετρο: 1013 hPa
Σύννεφα: Κυρίως Αίθριος
Ορατότητα: More than 10 km
Λεπτομέρειες Σύννεφου: Κυρίως Αίθριος 2000 ft
LGKL 271820Z 00000KT 9999 FEW020 05/M01 Q1013
LGKR - Kerkyra
Ενημερώθηκε: 27-01-2021 20:20
Κυρίως Αίθριος  
Κυρίως Αίθριος  
   Άνεμος: ΔΒΔ 13 km/h
Άνεμος: ΔΒΔ 13 km/h
Θερμοκρασία: 8°C
Δείκτης Ψυχρότητας: 6°C
Σημείο Δρόσου: -3°C
Υγρασία: 46%
Βαρόμετρο: 1013 hPa
Σύννεφα: Κυρίως Αίθριος
Ορατότητα: More than 10 km
Λεπτομέρειες Σύννεφου: Κυρίως Αίθριος 3500 ft
LGKR 271820Z 30007KT 9999 FEW035 08/M03 Q1013 NOSIG
LGIO - Iwannina
Ενημερώθηκε: 27-01-2021 20:20
Κυρίως Αίθριος  
Κυρίως Αίθριος  
   Άνεμος: ΒΔ 14.8 km/h
Άνεμος: ΒΔ 14.8 km/h
Θερμοκρασία: 1°C
Δείκτης Ψυχρότητας: -3°C
Σημείο Δρόσου: -8°C
Υγρασία: 51%
Βαρόμετρο: 1011 hPa
Σύννεφα: Κυρίως Αίθριος
Ορατότητα: More than 10 km
Λεπτομέρειες Σύννεφου: Κυρίως Αίθριος 3000 ft
LGIO 271820Z 32008KT 9999 FEW030 01/M08 Q1011
LGPZ - Leykada
Ενημερώθηκε: 27-01-2021 19:50
Μερικώς Νεφελώδης  
Μερικώς Νεφελώδης  
   Άνεμος: Βοράς 9.3 km/h
Άνεμος: Βοράς 9.3 km/h
Θερμοκρασία: 5°C
Δείκτης Ψυχρότητας: 3°C
Σημείο Δρόσου: -4°C
Υγρασία: 53%
Βαρόμετρο: 1013 hPa
Σύννεφα: Μερικώς Νεφελώδης
Ορατότητα: More than 10 km
Λεπτομέρειες Σύννεφου: Μερικώς Νεφελώδης 2000 ft
LGPZ 271750Z 36005KT 9999 SCT020 05/M04 Q1013
LGEL - Elefsina
Ενημερώθηκε: 27-01-2021 20:20
Κυρίως Αίθριος  
Κυρίως Αίθριος  
   Άνεμος: Άπνοια
Άνεμος: Άπνοια
Θερμοκρασία: 5°C
Σημείο Δρόσου: -4°C
Υγρασία: 53%
Βαρόμετρο: 1010 hPa
Σύννεφα: Κυρίως Αίθριος
Ορατότητα: More than 10 km
Λεπτομέρειες Σύννεφου: Κυρίως Αίθριος 3000 ft
LGEL 271820Z 00000KT 9999 FEW030 05/M04 Q1010
LGKC - Kythira
Ενημερώθηκε: 27-01-2021 14:50
ΜΗ τρέχουσες
Κυρίως Αίθριος  
Κυρίως Αίθριος  
   Άνεμος: ΔΒΔ 33.3 km/h<br />Gust to 33.3 km/h
Άνεμος: ΔΒΔ 33.3 km/h
Gust to 33.3 km/h
Θερμοκρασία: 8°C
Δείκτης Ψυχρότητας: 4°C
Σημείο Δρόσου: 3°C
Υγρασία: 71%
Βαρόμετρο: 1008 hPa
Σύννεφα: Κυρίως Αίθριος
Ορατότητα: More than 10 km
Λεπτομέρειες Σύννεφου: Κυρίως Αίθριος 2000 ft
LGKC 271250Z 29018G28KT 9999 FEW020 08/03 Q1008
LGIR - Hraklio
Ενημερώθηκε: 27-01-2021 20:20
Μερικώς Νεφελώδης  
Μερικώς Νεφελώδης  
   Άνεμος: Δύση 35.2 km/h
Άνεμος: Δύση 35.2 km/h
Θερμοκρασία: 9°C
Δείκτης Ψυχρότητας: 5°C
Σημείο Δρόσου: 3°C
Υγρασία: 66%
Βαρόμετρο: 1011 hPa
Σύννεφα: Μερικώς Νεφελώδης
Ορατότητα: More than 10 km
Λεπτομέρειες Σύννεφου: Κυρίως Αίθριος 2500 ft,
Μερικώς Νεφελώδης 3000 ft
LGIR 271820Z 26019KT 9999 FEW025 SCT030 09/03 Q1011 NOSIG

Script developed by  Saratoga-weather.org Προσαρμοσμένος για το πρότυπο του  Weerstation Leuven

Μπορείτε να βρείτε πληροφορίες καιρού μας και σε:

European Weather Network

WeatherCloud

Weather Underground

Δύκτιο Σταθμών Ελλάδας

AWEKAS

HAMweather, WeatherForYou, PWS Weather

MeteoPatras.Eu